sensor_id;sensor_type;location;lat;lon;timestamp;P1;durP1;ratioP1;P2;durP2;ratioP2
75990;SDS011;64673;52.276;10.560;2023-11-19T00:02:07;0.15;;;0.15;;
75990;SDS011;64673;52.276;10.560;2023-11-19T00:04:33;0.10;;;0.00;;
75990;SDS011;64673;52.276;10.560;2023-11-19T00:07:02;0.10;;;0.10;;
75990;SDS011;64673;52.276;10.560;2023-11-19T00:09:29;1.75;;;0.28;;
75990;SDS011;64673;52.276;10.560;2023-11-19T00:11:55;0.20;;;0.17;;
75990;SDS011;64673;52.276;10.560;2023-11-19T00:14:20;0.45;;;0.20;;
75990;SDS011;64673;52.276;10.560;2023-11-19T00:16:46;0.43;;;0.22;;
75990;SDS011;64673;52.276;10.560;2023-11-19T00:19:11;0.57;;;0.40;;
75990;SDS011;64673;52.276;10.560;2023-11-19T00:21:36;0.40;;;0.38;;
75990;SDS011;64673;52.276;10.560;2023-11-19T00:24:02;0.05;;;0.05;;
75990;SDS011;64673;52.276;10.560;2023-11-19T00:26:27;1.05;;;0.10;;
75990;SDS011;64673;52.276;10.560;2023-11-19T00:28:52;0.43;;;0.32;;
75990;SDS011;64673;52.276;10.560;2023-11-19T00:31:18;1.20;;;0.20;;
75990;SDS011;64673;52.276;10.560;2023-11-19T00:33:43;0.10;;;0.10;;
75990;SDS011;64673;52.276;10.560;2023-11-19T00:36:08;0.70;;;0.00;;
75990;SDS011;64673;52.276;10.560;2023-11-19T00:38:34;0.00;;;0.00;;
75990;SDS011;64673;52.276;10.560;2023-11-19T00:40:59;0.05;;;0.05;;
75990;SDS011;64673;52.276;10.560;2023-11-19T00:43:25;0.13;;;0.13;;
75990;SDS011;64673;52.276;10.560;2023-11-19T00:45:51;0.00;;;0.00;;
75990;SDS011;64673;52.276;10.560;2023-11-19T00:48:16;0.08;;;0.08;;
75990;SDS011;64673;52.276;10.560;2023-11-19T00:50:42;0.20;;;0.10;;
75990;SDS011;64673;52.276;10.560;2023-11-19T00:53:09;0.05;;;0.05;;
75990;SDS011;64673;52.276;10.560;2023-11-19T00:55:34;0.43;;;0.20;;
75990;SDS011;64673;52.276;10.560;2023-11-19T00:58:00;0.65;;;0.35;;
75990;SDS011;64673;52.276;10.560;2023-11-19T01:00:25;0.22;;;0.20;;
75990;SDS011;64673;52.276;10.560;2023-11-19T01:02:52;0.00;;;0.00;;
75990;SDS011;64673;52.276;10.560;2023-11-19T01:05:18;0.00;;;0.00;;
75990;SDS011;64673;52.276;10.560;2023-11-19T01:07:46;0.00;;;0.00;;
75990;SDS011;64673;52.276;10.560;2023-11-19T01:10:12;0.38;;;0.38;;
75990;SDS011;64673;52.276;10.560;2023-11-19T01:12:37;0.35;;;0.00;;
75990;SDS011;64673;52.276;10.560;2023-11-19T01:15:03;0.20;;;0.20;;
75990;SDS011;64673;52.276;10.560;2023-11-19T01:17:30;0.13;;;0.00;;
75990;SDS011;64673;52.276;10.560;2023-11-19T01:19:56;0.10;;;0.10;;
75990;SDS011;64673;52.276;10.560;2023-11-19T01:22:22;0.10;;;0.10;;
75990;SDS011;64673;52.276;10.560;2023-11-19T01:24:48;0.25;;;0.08;;
75990;SDS011;64673;52.276;10.560;2023-11-19T01:27:13;0.28;;;0.10;;
75990;SDS011;64673;52.276;10.560;2023-11-19T01:29:39;0.00;;;0.00;;
75990;SDS011;64673;52.276;10.560;2023-11-19T01:32:04;0.00;;;0.00;;
75990;SDS011;64673;52.276;10.560;2023-11-19T01:34:30;0.40;;;0.25;;
75990;SDS011;64673;52.276;10.560;2023-11-19T01:36:55;0.13;;;0.13;;
75990;SDS011;64673;52.276;10.560;2023-11-19T01:39:20;0.00;;;0.00;;
75990;SDS011;64673;52.276;10.560;2023-11-19T01:41:46;0.10;;;0.10;;
75990;SDS011;64673;52.276;10.560;2023-11-19T01:44:11;0.00;;;0.00;;
75990;SDS011;64673;52.276;10.560;2023-11-19T01:46:37;0.00;;;0.00;;
75990;SDS011;64673;52.276;10.560;2023-11-19T01:49:05;0.20;;;0.13;;
75990;SDS011;64673;52.276;10.560;2023-11-19T01:51:31;0.00;;;0.00;;
75990;SDS011;64673;52.276;10.560;2023-11-19T01:53:56;0.25;;;0.13;;
75990;SDS011;64673;52.276;10.560;2023-11-19T01:56:23;1.80;;;0.05;;
75990;SDS011;64673;52.276;10.560;2023-11-19T01:58:50;0.45;;;0.32;;
75990;SDS011;64673;52.276;10.560;2023-11-19T02:01:15;0.22;;;0.20;;
75990;SDS011;64673;52.276;10.560;2023-11-19T02:03:41;0.08;;;0.05;;
75990;SDS011;64673;52.276;10.560;2023-11-19T02:06:07;0.00;;;0.00;;
75990;SDS011;64673;52.276;10.560;2023-11-19T02:08:35;0.00;;;0.00;;
75990;SDS011;64673;52.276;10.560;2023-11-19T02:11:00;0.00;;;0.00;;
75990;SDS011;64673;52.276;10.560;2023-11-19T02:13:26;0.00;;;0.00;;
75990;SDS011;64673;52.276;10.560;2023-11-19T02:15:51;0.20;;;0.20;;
75990;SDS011;64673;52.276;10.560;2023-11-19T02:18:26;0.00;;;0.00;;
75990;SDS011;64673;52.276;10.560;2023-11-19T02:20:53;0.00;;;0.00;;
75990;SDS011;64673;52.276;10.560;2023-11-19T02:23:20;0.10;;;0.10;;
75990;SDS011;64673;52.276;10.560;2023-11-19T02:25:47;0.20;;;0.20;;
75990;SDS011;64673;52.276;10.560;2023-11-19T02:28:16;0.52;;;0.20;;
75990;SDS011;64673;52.276;10.560;2023-11-19T02:30:43;0.00;;;0.00;;
75990;SDS011;64673;52.276;10.560;2023-11-19T02:33:08;0.55;;;0.10;;
75990;SDS011;64673;52.276;10.560;2023-11-19T02:35:34;0.47;;;0.40;;
75990;SDS011;64673;52.276;10.560;2023-11-19T02:37:59;0.10;;;0.10;;
75990;SDS011;64673;52.276;10.560;2023-11-19T02:40:25;4.65;;;0.15;;
75990;SDS011;64673;52.276;10.560;2023-11-19T02:42:51;0.80;;;0.25;;
75990;SDS011;64673;52.276;10.560;2023-11-19T02:45:18;0.05;;;0.05;;
75990;SDS011;64673;52.276;10.560;2023-11-19T02:47:43;0.20;;;0.20;;
75990;SDS011;64673;52.276;10.560;2023-11-19T02:50:12;1.85;;;0.32;;
75990;SDS011;64673;52.276;10.560;2023-11-19T02:52:43;0.40;;;0.25;;
75990;SDS011;64673;52.276;10.560;2023-11-19T02:55:10;0.65;;;0.30;;
75990;SDS011;64673;52.276;10.560;2023-11-19T02:57:39;2.47;;;0.38;;
75990;SDS011;64673;52.276;10.560;2023-11-19T03:00:13;0.70;;;0.40;;
75990;SDS011;64673;52.276;10.560;2023-11-19T03:02:42;0.90;;;0.35;;
75990;SDS011;64673;52.276;10.560;2023-11-19T03:05:13;0.10;;;0.10;;
75990;SDS011;64673;52.276;10.560;2023-11-19T03:07:42;0.10;;;0.10;;
75990;SDS011;64673;52.276;10.560;2023-11-19T03:10:11;0.10;;;0.00;;
75990;SDS011;64673;52.276;10.560;2023-11-19T03:12:43;0.55;;;0.28;;
75990;SDS011;64673;52.276;10.560;2023-11-19T03:15:10;0.08;;;0.08;;
75990;SDS011;64673;52.276;10.560;2023-11-19T03:17:39;1.55;;;0.10;;
75990;SDS011;64673;52.276;10.560;2023-11-19T03:20:06;0.20;;;0.10;;
75990;SDS011;64673;52.276;10.560;2023-11-19T03:22:34;0.20;;;0.20;;
75990;SDS011;64673;52.276;10.560;2023-11-19T03:25:01;0.13;;;0.13;;
75990;SDS011;64673;52.276;10.560;2023-11-19T03:27:26;0.03;;;0.03;;
75990;SDS011;64673;52.276;10.560;2023-11-19T03:29:52;0.50;;;0.47;;
75990;SDS011;64673;52.276;10.560;2023-11-19T03:32:17;0.35;;;0.30;;
75990;SDS011;64673;52.276;10.560;2023-11-19T03:34:42;0.82;;;0.10;;
75990;SDS011;64673;52.276;10.560;2023-11-19T03:37:08;0.52;;;0.20;;
75990;SDS011;64673;52.276;10.560;2023-11-19T03:39:33;1.27;;;0.40;;
75990;SDS011;64673;52.276;10.560;2023-11-19T03:41:59;0.30;;;0.20;;
75990;SDS011;64673;52.276;10.560;2023-11-19T03:44:25;0.17;;;0.13;;
75990;SDS011;64673;52.276;10.560;2023-11-19T03:46:52;0.47;;;0.25;;
75990;SDS011;64673;52.276;10.560;2023-11-19T03:49:17;1.55;;;0.63;;
75990;SDS011;64673;52.276;10.560;2023-11-19T03:51:43;2.05;;;0.25;;
75990;SDS011;64673;52.276;10.560;2023-11-19T03:54:08;2.58;;;1.15;;
75990;SDS011;64673;52.276;10.560;2023-11-19T03:56:33;0.50;;;0.40;;
75990;SDS011;64673;52.276;10.560;2023-11-19T03:58:59;0.45;;;0.17;;
75990;SDS011;64673;52.276;10.560;2023-11-19T04:01:24;0.17;;;0.13;;
75990;SDS011;64673;52.276;10.560;2023-11-19T04:03:50;0.88;;;0.60;;
75990;SDS011;64673;52.276;10.560;2023-11-19T04:06:15;0.47;;;0.25;;
75990;SDS011;64673;52.276;10.560;2023-11-19T04:08:40;0.10;;;0.05;;
75990;SDS011;64673;52.276;10.560;2023-11-19T04:11:06;1.23;;;0.55;;
75990;SDS011;64673;52.276;10.560;2023-11-19T04:13:33;0.20;;;0.10;;
75990;SDS011;64673;52.276;10.560;2023-11-19T04:15:58;0.30;;;0.30;;
75990;SDS011;64673;52.276;10.560;2023-11-19T04:18:24;1.33;;;0.40;;
75990;SDS011;64673;52.276;10.560;2023-11-19T04:20:49;0.63;;;0.20;;
75990;SDS011;64673;52.276;10.560;2023-11-19T04:23:15;0.45;;;0.35;;
75990;SDS011;64673;52.276;10.560;2023-11-19T04:25:41;0.28;;;0.10;;
75990;SDS011;64673;52.276;10.560;2023-11-19T04:28:06;1.58;;;0.28;;
75990;SDS011;64673;52.276;10.560;2023-11-19T04:30:31;0.32;;;0.15;;
75990;SDS011;64673;52.276;10.560;2023-11-19T04:32:57;0.20;;;0.17;;
75990;SDS011;64673;52.276;10.560;2023-11-19T04:35:22;0.40;;;0.40;;
75990;SDS011;64673;52.276;10.560;2023-11-19T04:37:48;0.47;;;0.30;;
75990;SDS011;64673;52.276;10.560;2023-11-19T04:40:14;0.03;;;0.03;;
75990;SDS011;64673;52.276;10.560;2023-11-19T04:42:39;0.30;;;0.10;;
75990;SDS011;64673;52.276;10.560;2023-11-19T04:45:05;0.20;;;0.10;;
75990;SDS011;64673;52.276;10.560;2023-11-19T04:47:32;0.28;;;0.20;;
75990;SDS011;64673;52.276;10.560;2023-11-19T04:50:00;0.60;;;0.50;;
75990;SDS011;64673;52.276;10.560;2023-11-19T04:52:25;0.20;;;0.17;;
75990;SDS011;64673;52.276;10.560;2023-11-19T04:54:51;0.52;;;0.22;;
75990;SDS011;64673;52.276;10.560;2023-11-19T04:57:16;3.80;;;0.57;;
75990;SDS011;64673;52.276;10.560;2023-11-19T04:59:42;0.90;;;0.30;;
75990;SDS011;64673;52.276;10.560;2023-11-19T05:02:08;0.38;;;0.38;;
75990;SDS011;64673;52.276;10.560;2023-11-19T05:04:34;0.20;;;0.10;;
75990;SDS011;64673;52.276;10.560;2023-11-19T05:07:00;0.65;;;0.60;;
75990;SDS011;64673;52.276;10.560;2023-11-19T05:09:25;2.05;;;0.20;;
75990;SDS011;64673;52.276;10.560;2023-11-19T05:11:50;1.13;;;0.73;;
75990;SDS011;64673;52.276;10.560;2023-11-19T05:14:16;0.30;;;0.20;;
75990;SDS011;64673;52.276;10.560;2023-11-19T05:16:41;0.38;;;0.38;;
75990;SDS011;64673;52.276;10.560;2023-11-19T05:19:08;0.98;;;0.20;;
75990;SDS011;64673;52.276;10.560;2023-11-19T05:21:34;1.38;;;0.40;;
75990;SDS011;64673;52.276;10.560;2023-11-19T05:24:00;0.60;;;0.40;;
75990;SDS011;64673;52.276;10.560;2023-11-19T05:26:29;0.28;;;0.20;;
75990;SDS011;64673;52.276;10.560;2023-11-19T05:28:55;0.45;;;0.35;;
75990;SDS011;64673;52.276;10.560;2023-11-19T05:31:20;0.68;;;0.40;;
75990;SDS011;64673;52.276;10.560;2023-11-19T05:33:45;0.10;;;0.10;;
75990;SDS011;64673;52.276;10.560;2023-11-19T05:36:11;0.40;;;0.40;;
75990;SDS011;64673;52.276;10.560;2023-11-19T05:38:37;1.70;;;0.60;;
75990;SDS011;64673;52.276;10.560;2023-11-19T05:41:03;0.95;;;0.60;;
75990;SDS011;64673;52.276;10.560;2023-11-19T05:43:29;0.80;;;0.38;;
75990;SDS011;64673;52.276;10.560;2023-11-19T05:45:55;0.55;;;0.15;;
75990;SDS011;64673;52.276;10.560;2023-11-19T05:48:20;0.55;;;0.28;;
75990;SDS011;64673;52.276;10.560;2023-11-19T05:50:46;0.43;;;0.15;;
75990;SDS011;64673;52.276;10.560;2023-11-19T05:53:12;0.50;;;0.38;;
75990;SDS011;64673;52.276;10.560;2023-11-19T05:55:39;0.85;;;0.28;;
75990;SDS011;64673;52.276;10.560;2023-11-19T05:58:11;0.40;;;0.22;;
75990;SDS011;64673;52.276;10.560;2023-11-19T06:00:38;1.10;;;0.30;;
75990;SDS011;64673;52.276;10.560;2023-11-19T06:03:05;0.10;;;0.10;;
75990;SDS011;64673;52.276;10.560;2023-11-19T06:05:31;1.50;;;0.22;;
75990;SDS011;64673;52.276;10.560;2023-11-19T06:07:56;0.45;;;0.22;;
75990;SDS011;64673;52.276;10.560;2023-11-19T06:10:22;4.15;;;0.40;;
75990;SDS011;64673;52.276;10.560;2023-11-19T06:12:49;0.45;;;0.20;;
75990;SDS011;64673;52.276;10.560;2023-11-19T06:15:20;0.73;;;0.52;;
75990;SDS011;64673;52.276;10.560;2023-11-19T06:17:46;0.90;;;0.68;;
75990;SDS011;64673;52.276;10.560;2023-11-19T06:20:11;0.75;;;0.40;;
75990;SDS011;64673;52.276;10.560;2023-11-19T06:22:37;2.45;;;0.43;;
75990;SDS011;64673;52.276;10.560;2023-11-19T06:25:02;0.82;;;0.50;;
75990;SDS011;64673;52.276;10.560;2023-11-19T06:27:32;0.40;;;0.32;;
75990;SDS011;64673;52.276;10.560;2023-11-19T06:29:57;0.52;;;0.30;;
75990;SDS011;64673;52.276;10.560;2023-11-19T06:32:23;0.70;;;0.50;;
75990;SDS011;64673;52.276;10.560;2023-11-19T06:34:48;0.40;;;0.35;;
75990;SDS011;64673;52.276;10.560;2023-11-19T06:37:13;0.60;;;0.40;;
75990;SDS011;64673;52.276;10.560;2023-11-19T06:39:38;2.65;;;0.82;;
75990;SDS011;64673;52.276;10.560;2023-11-19T06:42:04;2.25;;;1.08;;
75990;SDS011;64673;52.276;10.560;2023-11-19T06:44:29;0.85;;;0.60;;
75990;SDS011;64673;52.276;10.560;2023-11-19T06:46:55;1.15;;;0.35;;
75990;SDS011;64673;52.276;10.560;2023-11-19T06:49:20;8.90;;;0.63;;
75990;SDS011;64673;52.276;10.560;2023-11-19T06:51:45;0.70;;;0.50;;
75990;SDS011;64673;52.276;10.560;2023-11-19T06:54:11;2.80;;;0.88;;
75990;SDS011;64673;52.276;10.560;2023-11-19T06:56:36;1.48;;;0.60;;
75990;SDS011;64673;52.276;10.560;2023-11-19T06:59:02;1.33;;;0.38;;
75990;SDS011;64673;52.276;10.560;2023-11-19T07:01:27;1.38;;;0.80;;
75990;SDS011;64673;52.276;10.560;2023-11-19T07:03:52;1.65;;;0.20;;
75990;SDS011;64673;52.276;10.560;2023-11-19T07:06:18;2.05;;;0.77;;
75990;SDS011;64673;52.276;10.560;2023-11-19T07:08:43;0.43;;;0.25;;
75990;SDS011;64673;52.276;10.560;2023-11-19T07:11:12;1.58;;;0.60;;
75990;SDS011;64673;52.276;10.560;2023-11-19T07:13:39;0.35;;;0.32;;
75990;SDS011;64673;52.276;10.560;2023-11-19T07:16:06;3.63;;;1.05;;
75990;SDS011;64673;52.276;10.560;2023-11-19T07:18:34;3.00;;;0.60;;
75990;SDS011;64673;52.276;10.560;2023-11-19T07:21:00;0.80;;;0.30;;
75990;SDS011;64673;52.276;10.560;2023-11-19T07:23:26;2.53;;;0.80;;
75990;SDS011;64673;52.276;10.560;2023-11-19T07:25:51;1.88;;;0.77;;
75990;SDS011;64673;52.276;10.560;2023-11-19T07:28:17;4.05;;;1.00;;
75990;SDS011;64673;52.276;10.560;2023-11-19T07:30:43;1.20;;;0.60;;
75990;SDS011;64673;52.276;10.560;2023-11-19T07:33:08;2.15;;;0.95;;
75990;SDS011;64673;52.276;10.560;2023-11-19T07:35:34;1.67;;;0.50;;
75990;SDS011;64673;52.276;10.560;2023-11-19T07:37:59;1.15;;;0.47;;
75990;SDS011;64673;52.276;10.560;2023-11-19T07:40:24;1.13;;;0.90;;
75990;SDS011;64673;52.276;10.560;2023-11-19T07:42:50;0.50;;;0.40;;
75990;SDS011;64673;52.276;10.560;2023-11-19T07:45:15;0.82;;;0.40;;
75990;SDS011;64673;52.276;10.560;2023-11-19T07:47:41;3.03;;;1.55;;
75990;SDS011;64673;52.276;10.560;2023-11-19T07:50:09;5.43;;;1.77;;
75990;SDS011;64673;52.276;10.560;2023-11-19T07:52:34;0.82;;;0.65;;
75990;SDS011;64673;52.276;10.560;2023-11-19T07:55:00;2.05;;;0.85;;
75990;SDS011;64673;52.276;10.560;2023-11-19T07:57:25;7.15;;;1.00;;
75990;SDS011;64673;52.276;10.560;2023-11-19T07:59:52;5.25;;;1.10;;
75990;SDS011;64673;52.276;10.560;2023-11-19T08:02:18;1.35;;;0.70;;
75990;SDS011;64673;52.276;10.560;2023-11-19T08:04:44;2.40;;;0.60;;
75990;SDS011;64673;52.276;10.560;2023-11-19T08:07:11;1.05;;;0.80;;
75990;SDS011;64673;52.276;10.560;2023-11-19T08:09:36;6.18;;;0.90;;
75990;SDS011;64673;52.276;10.560;2023-11-19T08:12:02;1.00;;;0.57;;
75990;SDS011;64673;52.276;10.560;2023-11-19T08:14:28;1.60;;;0.98;;
75990;SDS011;64673;52.276;10.560;2023-11-19T08:16:53;1.08;;;0.98;;
75990;SDS011;64673;52.276;10.560;2023-11-19T08:19:19;4.05;;;1.17;;
75990;SDS011;64673;52.276;10.560;2023-11-19T08:21:44;5.95;;;0.93;;
75990;SDS011;64673;52.276;10.560;2023-11-19T08:24:09;5.90;;;1.55;;
75990;SDS011;64673;52.276;10.560;2023-11-19T08:26:35;3.65;;;2.03;;
75990;SDS011;64673;52.276;10.560;2023-11-19T08:29:00;6.60;;;1.83;;
75990;SDS011;64673;52.276;10.560;2023-11-19T08:31:25;1.20;;;0.88;;
75990;SDS011;64673;52.276;10.560;2023-11-19T08:33:51;2.65;;;1.25;;
75990;SDS011;64673;52.276;10.560;2023-11-19T08:36:16;3.45;;;1.27;;
75990;SDS011;64673;52.276;10.560;2023-11-19T08:38:42;4.00;;;1.45;;
75990;SDS011;64673;52.276;10.560;2023-11-19T08:41:07;8.73;;;1.42;;
75990;SDS011;64673;52.276;10.560;2023-11-19T08:43:32;9.07;;;1.65;;
75990;SDS011;64673;52.276;10.560;2023-11-19T08:45:58;6.63;;;0.95;;
75990;SDS011;64673;52.276;10.560;2023-11-19T08:48:23;6.40;;;1.38;;
75990;SDS011;64673;52.276;10.560;2023-11-19T08:50:49;4.57;;;0.95;;
75990;SDS011;64673;52.276;10.560;2023-11-19T08:53:14;1.75;;;0.82;;
75990;SDS011;64673;52.276;10.560;2023-11-19T08:55:40;4.32;;;0.98;;
75990;SDS011;64673;52.276;10.560;2023-11-19T08:58:05;0.93;;;0.82;;
75990;SDS011;64673;52.276;10.560;2023-11-19T09:00:31;3.63;;;0.93;;
75990;SDS011;64673;52.276;10.560;2023-11-19T09:02:57;6.18;;;1.05;;
75990;SDS011;64673;52.276;10.560;2023-11-19T09:05:23;2.38;;;1.33;;
75990;SDS011;64673;52.276;10.560;2023-11-19T09:07:48;3.30;;;0.80;;
75990;SDS011;64673;52.276;10.560;2023-11-19T09:10:14;6.78;;;1.00;;
75990;SDS011;64673;52.276;10.560;2023-11-19T09:12:40;4.78;;;0.90;;
75990;SDS011;64673;52.276;10.560;2023-11-19T09:15:05;8.00;;;1.75;;
75990;SDS011;64673;52.276;10.560;2023-11-19T09:17:31;1.67;;;1.33;;
75990;SDS011;64673;52.276;10.560;2023-11-19T09:19:56;4.03;;;1.30;;
75990;SDS011;64673;52.276;10.560;2023-11-19T09:22:22;1.40;;;1.27;;
75990;SDS011;64673;52.276;10.560;2023-11-19T09:24:47;3.38;;;1.10;;
75990;SDS011;64673;52.276;10.560;2023-11-19T09:27:13;3.30;;;0.88;;
75990;SDS011;64673;52.276;10.560;2023-11-19T09:29:38;6.07;;;1.85;;
75990;SDS011;64673;52.276;10.560;2023-11-19T09:32:03;4.25;;;1.05;;
75990;SDS011;64673;52.276;10.560;2023-11-19T09:34:29;4.07;;;1.35;;
75990;SDS011;64673;52.276;10.560;2023-11-19T09:36:55;8.70;;;1.98;;
75990;SDS011;64673;52.276;10.560;2023-11-19T09:39:20;3.88;;;1.20;;
75990;SDS011;64673;52.276;10.560;2023-11-19T09:41:46;4.07;;;0.98;;
75990;SDS011;64673;52.276;10.560;2023-11-19T09:44:12;7.43;;;0.85;;
75990;SDS011;64673;52.276;10.560;2023-11-19T09:46:40;2.17;;;1.23;;
75990;SDS011;64673;52.276;10.560;2023-11-19T09:49:06;2.28;;;0.70;;
75990;SDS011;64673;52.276;10.560;2023-11-19T09:53:59;7.78;;;1.33;;
75990;SDS011;64673;52.276;10.560;2023-11-19T09:56:25;4.55;;;1.23;;
75990;SDS011;64673;52.276;10.560;2023-11-19T09:58:52;6.22;;;1.80;;
75990;SDS011;64673;52.276;10.560;2023-11-19T10:01:18;3.60;;;1.98;;
75990;SDS011;64673;52.276;10.560;2023-11-19T10:03:43;5.43;;;1.25;;
75990;SDS011;64673;52.276;10.560;2023-11-19T10:06:12;6.05;;;1.00;;
75990;SDS011;64673;52.276;10.560;2023-11-19T10:08:40;6.93;;;1.35;;
75990;SDS011;64673;52.276;10.560;2023-11-19T10:11:07;9.00;;;1.13;;
75990;SDS011;64673;52.276;10.560;2023-11-19T10:13:34;5.35;;;1.05;;
75990;SDS011;64673;52.276;10.560;2023-11-19T10:16:09;4.28;;;0.93;;
75990;SDS011;64673;52.276;10.560;2023-11-19T10:18:37;7.60;;;1.13;;
75990;SDS011;64673;52.276;10.560;2023-11-19T10:21:05;2.22;;;1.02;;
75990;SDS011;64673;52.276;10.560;2023-11-19T10:23:31;10.10;;;1.13;;
75990;SDS011;64673;52.276;10.560;2023-11-19T10:26:12;1.73;;;0.70;;
75990;SDS011;64673;52.276;10.560;2023-11-19T10:28:38;10.63;;;0.88;;
75990;SDS011;64673;52.276;10.560;2023-11-19T10:31:05;1.23;;;0.70;;
75990;SDS011;64673;52.276;10.560;2023-11-19T10:33:30;8.77;;;0.85;;
75990;SDS011;64673;52.276;10.560;2023-11-19T10:35:56;6.88;;;2.65;;
75990;SDS011;64673;52.276;10.560;2023-11-19T10:38:23;15.38;;;1.50;;
75990;SDS011;64673;52.276;10.560;2023-11-19T10:40:49;14.90;;;1.67;;
75990;SDS011;64673;52.276;10.560;2023-11-19T10:43:18;7.63;;;0.90;;
75990;SDS011;64673;52.276;10.560;2023-11-19T10:45:44;6.22;;;1.10;;
75990;SDS011;64673;52.276;10.560;2023-11-19T10:48:10;8.40;;;0.90;;
75990;SDS011;64673;52.276;10.560;2023-11-19T10:50:37;8.00;;;1.20;;
75990;SDS011;64673;52.276;10.560;2023-11-19T10:53:04;3.55;;;0.77;;
75990;SDS011;64673;52.276;10.560;2023-11-19T10:55:34;2.83;;;0.98;;
75990;SDS011;64673;52.276;10.560;2023-11-19T10:58:03;9.05;;;1.40;;
75990;SDS011;64673;52.276;10.560;2023-11-19T11:00:32;6.97;;;1.40;;
75990;SDS011;64673;52.276;10.560;2023-11-19T11:03:05;8.45;;;1.05;;
75990;SDS011;64673;52.276;10.560;2023-11-19T11:05:35;5.72;;;1.27;;
75990;SDS011;64673;52.276;10.560;2023-11-19T11:08:03;12.27;;;1.38;;
75990;SDS011;64673;52.276;10.560;2023-11-19T11:10:31;2.67;;;0.55;;
75990;SDS011;64673;52.276;10.560;2023-11-19T11:13:02;4.63;;;1.48;;
75990;SDS011;64673;52.276;10.560;2023-11-19T11:15:29;5.97;;;1.02;;
75990;SDS011;64673;52.276;10.560;2023-11-19T11:17:57;3.53;;;0.70;;
75990;SDS011;64673;52.276;10.560;2023-11-19T11:20:27;2.67;;;1.08;;
75990;SDS011;64673;52.276;10.560;2023-11-19T11:23:20;4.50;;;1.30;;
75990;SDS011;64673;52.276;10.560;2023-11-19T11:28:43;0.85;;;0.57;;
75990;SDS011;64673;52.276;10.560;2023-11-19T11:31:36;6.68;;;1.25;;
75990;SDS011;64673;52.276;10.560;2023-11-19T11:39:33;4.20;;;0.50;;
75990;SDS011;64673;52.276;10.560;2023-11-19T11:50:08;3.75;;;0.70;;
75990;SDS011;64673;52.276;10.560;2023-11-19T11:57:58;3.30;;;0.93;;
75990;SDS011;64673;52.276;10.560;2023-11-19T12:02:56;5.45;;;1.75;;
75990;SDS011;64673;52.276;10.560;2023-11-19T12:05:23;9.07;;;1.42;;
75990;SDS011;64673;52.276;10.560;2023-11-19T12:07:57;5.43;;;1.55;;
75990;SDS011;64673;52.276;10.560;2023-11-19T12:10:28;3.53;;;0.75;;
75990;SDS011;64673;52.276;10.560;2023-11-19T12:12:59;1.35;;;0.93;;
75990;SDS011;64673;52.276;10.560;2023-11-19T12:15:26;2.20;;;0.93;;
75990;SDS011;64673;52.276;10.560;2023-11-19T12:17:52;8.02;;;0.70;;
75990;SDS011;64673;52.276;10.560;2023-11-19T12:20:19;4.28;;;0.80;;
75990;SDS011;64673;52.276;10.560;2023-11-19T12:22:46;1.77;;;0.68;;
75990;SDS011;64673;52.276;10.560;2023-11-19T12:25:14;4.90;;;1.60;;
75990;SDS011;64673;52.276;10.560;2023-11-19T12:27:45;7.65;;;1.10;;
75990;SDS011;64673;52.276;10.560;2023-11-19T12:30:12;6.63;;;0.75;;
75990;SDS011;64673;52.276;10.560;2023-11-19T12:32:44;6.72;;;1.77;;
75990;SDS011;64673;52.276;10.560;2023-11-19T12:35:11;6.57;;;1.05;;
75990;SDS011;64673;52.276;10.560;2023-11-19T12:37:43;2.97;;;1.40;;
75990;SDS011;64673;52.276;10.560;2023-11-19T12:40:19;5.95;;;1.17;;
75990;SDS011;64673;52.276;10.560;2023-11-19T12:42:49;2.47;;;1.27;;
75990;SDS011;64673;52.276;10.560;2023-11-19T12:45:15;4.85;;;1.00;;
75990;SDS011;64673;52.276;10.560;2023-11-19T12:47:42;5.03;;;1.10;;
75990;SDS011;64673;52.276;10.560;2023-11-19T12:50:09;6.13;;;1.52;;
75990;SDS011;64673;52.276;10.560;2023-11-19T12:52:35;7.38;;;1.33;;
75990;SDS011;64673;52.276;10.560;2023-11-19T12:55:02;5.95;;;0.57;;
75990;SDS011;64673;52.276;10.560;2023-11-19T12:57:42;9.35;;;1.50;;
75990;SDS011;64673;52.276;10.560;2023-11-19T13:00:17;5.63;;;1.40;;
75990;SDS011;64673;52.276;10.560;2023-11-19T13:08:08;5.32;;;0.98;;
75990;SDS011;64673;52.276;10.560;2023-11-19T13:10:50;9.27;;;2.00;;
75990;SDS011;64673;52.276;10.560;2023-11-19T13:13:16;5.68;;;1.10;;
75990;SDS011;64673;52.276;10.560;2023-11-19T13:15:42;3.42;;;0.68;;
75990;SDS011;64673;52.276;10.560;2023-11-19T13:18:11;10.27;;;0.88;;
75990;SDS011;64673;52.276;10.560;2023-11-19T13:20:36;5.35;;;1.55;;
75990;SDS011;64673;52.276;10.560;2023-11-19T13:23:03;4.25;;;0.90;;
75990;SDS011;64673;52.276;10.560;2023-11-19T13:25:29;8.23;;;1.20;;
75990;SDS011;64673;52.276;10.560;2023-11-19T13:27:56;8.77;;;2.33;;
75990;SDS011;64673;52.276;10.560;2023-11-19T13:30:22;4.70;;;1.60;;
75990;SDS011;64673;52.276;10.560;2023-11-19T13:32:48;11.65;;;1.85;;
75990;SDS011;64673;52.276;10.560;2023-11-19T13:35:14;7.40;;;1.10;;
75990;SDS011;64673;52.276;10.560;2023-11-19T13:37:40;5.03;;;1.20;;
75990;SDS011;64673;52.276;10.560;2023-11-19T13:40:06;4.40;;;1.13;;
75990;SDS011;64673;52.276;10.560;2023-11-19T13:42:32;9.80;;;1.05;;
75990;SDS011;64673;52.276;10.560;2023-11-19T13:44:58;1.50;;;0.55;;
75990;SDS011;64673;52.276;10.560;2023-11-19T13:47:23;1.85;;;0.90;;
75990;SDS011;64673;52.276;10.560;2023-11-19T13:49:49;7.82;;;1.23;;
75990;SDS011;64673;52.276;10.560;2023-11-19T13:52:15;1.90;;;0.77;;
75990;SDS011;64673;52.276;10.560;2023-11-19T13:54:40;8.65;;;1.52;;
75990;SDS011;64673;52.276;10.560;2023-11-19T13:57:06;3.40;;;0.40;;
75990;SDS011;64673;52.276;10.560;2023-11-19T13:59:31;9.70;;;1.45;;
75990;SDS011;64673;52.276;10.560;2023-11-19T14:01:59;1.75;;;0.75;;
75990;SDS011;64673;52.276;10.560;2023-11-19T14:04:25;3.15;;;1.05;;
75990;SDS011;64673;52.276;10.560;2023-11-19T14:06:51;7.72;;;1.15;;
75990;SDS011;64673;52.276;10.560;2023-11-19T14:09:17;3.28;;;0.75;;
75990;SDS011;64673;52.276;10.560;2023-11-19T14:11:42;2.90;;;1.35;;
75990;SDS011;64673;52.276;10.560;2023-11-19T14:14:08;4.85;;;0.80;;
75990;SDS011;64673;52.276;10.560;2023-11-19T14:16:34;5.70;;;1.13;;
75990;SDS011;64673;52.276;10.560;2023-11-19T14:18:59;12.85;;;1.48;;
75990;SDS011;64673;52.276;10.560;2023-11-19T14:21:25;9.68;;;1.25;;
75990;SDS011;64673;52.276;10.560;2023-11-19T14:23:51;7.97;;;1.33;;
75990;SDS011;64673;52.276;10.560;2023-11-19T14:26:17;5.18;;;1.15;;
75990;SDS011;64673;52.276;10.560;2023-11-19T14:28:42;7.93;;;1.75;;
75990;SDS011;64673;52.276;10.560;2023-11-19T14:31:08;12.05;;;1.83;;
75990;SDS011;64673;52.276;10.560;2023-11-19T14:33:33;4.20;;;0.85;;
75990;SDS011;64673;52.276;10.560;2023-11-19T14:38:26;4.20;;;1.03;;
75990;SDS011;64673;52.276;10.560;2023-11-19T14:40:51;3.67;;;0.70;;
75990;SDS011;64673;52.276;10.560;2023-11-19T14:43:16;16.73;;;2.00;;
75990;SDS011;64673;52.276;10.560;2023-11-19T14:45:41;5.38;;;1.20;;
75990;SDS011;64673;52.276;10.560;2023-11-19T14:48:07;7.68;;;1.67;;
75990;SDS011;64673;52.276;10.560;2023-11-19T14:50:32;14.52;;;1.40;;
75990;SDS011;64673;52.276;10.560;2023-11-19T14:52:57;2.10;;;0.98;;
75990;SDS011;64673;52.276;10.560;2023-11-19T14:55:23;11.13;;;1.45;;
75990;SDS011;64673;52.276;10.560;2023-11-19T14:57:48;2.65;;;1.35;;
75990;SDS011;64673;52.276;10.560;2023-11-19T15:00:15;3.28;;;1.33;;
75990;SDS011;64673;52.276;10.560;2023-11-19T15:02:41;1.67;;;0.65;;
75990;SDS011;64673;52.276;10.560;2023-11-19T15:05:07;3.83;;;1.30;;